createdAt,value
2019-04-16T00:00:11.887Z,0.00
2019-04-16T00:01:07.977Z,0.00
2019-04-16T00:02:07.964Z,0.00
2019-04-16T00:03:07.954Z,0.00
2019-04-16T00:04:07.942Z,0.00
2019-04-16T00:05:07.946Z,0.00
2019-04-16T00:06:07.929Z,0.00
2019-04-16T00:07:07.908Z,0.00
2019-04-16T00:08:19.469Z,0.00
2019-04-16T00:09:08.884Z,0.00
2019-04-16T00:10:07.902Z,0.00
2019-04-16T00:11:07.863Z,0.00
2019-04-16T00:12:07.861Z,0.00
2019-04-16T00:13:07.852Z,0.00
2019-04-16T00:14:07.835Z,0.00
2019-04-16T00:15:07.842Z,0.00
2019-04-16T00:16:12.708Z,0.00
2019-04-16T00:17:08.800Z,0.00
2019-04-16T00:18:07.785Z,0.00
2019-04-16T00:19:07.906Z,0.00
2019-04-16T00:20:07.778Z,0.00
2019-04-16T00:21:10.038Z,0.00
2019-04-16T00:22:11.554Z,0.00
2019-04-16T00:23:07.868Z,0.00
2019-04-16T00:24:07.720Z,0.00
2019-04-16T00:25:07.730Z,0.00
2019-04-16T00:26:07.724Z,0.00
2019-04-16T00:27:07.685Z,0.00
2019-04-16T00:28:07.680Z,0.00
2019-04-16T00:29:07.676Z,0.00
2019-04-16T00:30:07.657Z,0.00
2019-04-16T00:31:07.770Z,0.00
2019-04-16T00:32:09.442Z,0.00
2019-04-16T00:33:10.722Z,0.00
2019-04-16T00:34:07.607Z,0.00
2019-04-16T00:35:07.594Z,0.00
2019-04-16T00:36:07.600Z,0.00
2019-04-16T00:37:07.628Z,0.00
2019-04-16T00:38:07.746Z,0.00
2019-04-16T00:39:07.719Z,0.00
2019-04-16T00:40:07.777Z,0.00
2019-04-16T00:41:07.687Z,0.00
2019-04-16T00:42:07.522Z,0.00
2019-04-16T00:43:07.512Z,0.00
2019-04-16T00:44:07.515Z,0.00
2019-04-16T00:45:07.484Z,0.00
2019-04-16T00:46:08.234Z,0.00
2019-04-16T00:47:07.462Z,0.00
2019-04-16T00:48:07.457Z,0.00
2019-04-16T00:49:07.444Z,0.00
2019-04-16T00:50:07.437Z,0.00
2019-04-16T00:51:07.433Z,0.00
2019-04-16T00:52:07.455Z,0.00
2019-04-16T00:53:08.321Z,0.00
2019-04-16T00:54:10.432Z,0.00
2019-04-16T00:55:07.496Z,0.00
2019-04-16T00:56:07.400Z,0.00
2019-04-16T00:57:07.354Z,0.00
2019-04-16T00:58:07.340Z,0.00
2019-04-16T00:59:07.328Z,0.00
2019-04-16T01:00:07.330Z,0.00
2019-04-16T01:01:07.322Z,0.00
2019-04-16T01:02:07.300Z,0.00
2019-04-16T01:03:07.286Z,0.00
2019-04-16T01:04:07.276Z,0.00
2019-04-16T01:05:07.263Z,0.00
2019-04-16T01:06:08.392Z,0.00
2019-04-16T01:07:07.238Z,0.00
2019-04-16T01:08:07.243Z,0.00
2019-04-16T01:09:07.220Z,0.00
2019-04-16T01:10:07.208Z,0.00
2019-04-16T01:11:07.238Z,0.00
2019-04-16T01:12:07.193Z,0.00
2019-04-16T01:13:07.184Z,0.00
2019-04-16T01:14:07.168Z,0.00
2019-04-16T01:15:07.148Z,0.00
2019-04-16T01:16:07.148Z,0.00
2019-04-16T01:17:07.262Z,0.00
2019-04-16T01:18:08.080Z,0.00
2019-04-16T01:19:09.879Z,0.00
2019-04-16T01:20:11.615Z,0.00
2019-04-16T01:21:08.083Z,0.00
2019-04-16T01:22:07.091Z,0.00
2019-04-16T01:23:07.073Z,0.00
2019-04-16T01:24:07.049Z,0.00
2019-04-16T01:25:07.042Z,0.00
2019-04-16T01:26:07.037Z,0.00
2019-04-16T01:27:07.401Z,0.00
2019-04-16T01:28:07.003Z,0.00
2019-04-16T01:29:06.998Z,0.00
2019-04-16T01:30:06.987Z,0.00
2019-04-16T01:31:08.276Z,0.00
2019-04-16T01:32:09.990Z,0.00
2019-04-16T01:33:07.123Z,0.00
2019-04-16T01:34:06.992Z,0.00
2019-04-16T01:35:06.934Z,0.00
2019-04-16T01:36:06.914Z,0.00
2019-04-16T01:37:06.919Z,0.00
2019-04-16T01:38:06.907Z,0.00
2019-04-16T01:39:15.603Z,0.00
2019-04-16T01:40:07.871Z,0.00
2019-04-16T01:41:06.877Z,0.00
2019-04-16T01:42:06.862Z,0.00
2019-04-16T01:43:06.840Z,0.00
2019-04-16T01:44:06.835Z,0.00
2019-04-16T01:45:06.813Z,0.00
2019-04-16T01:46:06.811Z,0.00
2019-04-16T01:47:06.812Z,0.00
2019-04-16T01:48:08.204Z,0.00
2019-04-16T01:49:09.742Z,0.00
2019-04-16T01:50:06.765Z,0.00
2019-04-16T01:51:06.751Z,0.00
2019-04-16T01:52:06.761Z,0.00
2019-04-16T01:53:06.726Z,0.00
2019-04-16T01:54:06.791Z,0.00
2019-04-16T01:55:06.743Z,0.00
2019-04-16T01:56:06.803Z,0.00
2019-04-16T01:57:06.785Z,0.00
2019-04-16T01:58:06.804Z,0.00
2019-04-16T01:59:06.870Z,0.00
2019-04-16T02:00:08.106Z,0.00
2019-04-16T02:01:08.109Z,0.00
2019-04-16T02:02:06.651Z,0.00
2019-04-16T02:03:06.615Z,0.00
2019-04-16T02:04:06.608Z,0.00
2019-04-16T02:05:06.596Z,0.00
2019-04-16T02:06:06.587Z,0.00
2019-04-16T02:07:06.596Z,0.00
2019-04-16T02:08:06.570Z,0.00
2019-04-16T02:09:06.552Z,0.00
2019-04-16T02:10:07.761Z,0.00
2019-04-16T02:11:09.795Z,0.00
2019-04-16T02:12:06.546Z,0.00
2019-04-16T02:13:06.779Z,0.00
2019-04-16T02:14:06.501Z,0.00
2019-04-16T02:15:06.487Z,0.00
2019-04-16T02:16:06.479Z,0.00
2019-04-16T02:17:06.473Z,0.00
2019-04-16T02:18:06.451Z,0.00
2019-04-16T02:19:06.447Z,0.00
2019-04-16T02:20:07.401Z,0.00
2019-04-16T02:21:09.513Z,0.00
2019-04-16T02:22:06.417Z,0.00
2019-04-16T02:23:06.391Z,0.00
2019-04-16T02:24:06.386Z,0.00
2019-04-16T02:25:06.367Z,0.00
2019-04-16T02:26:06.377Z,0.00
2019-04-16T02:27:06.364Z,0.00
2019-04-16T02:28:06.360Z,0.00
2019-04-16T02:29:06.325Z,0.00
2019-04-16T02:30:06.684Z,0.00
2019-04-16T02:31:12.868Z,0.00
2019-04-16T02:32:07.549Z,0.00
2019-04-16T02:33:06.494Z,0.00
2019-04-16T02:34:06.274Z,0.00
2019-04-16T02:35:06.268Z,0.00
2019-04-16T02:36:06.248Z,0.00
2019-04-16T02:37:06.277Z,0.00
2019-04-16T02:38:10.458Z,0.00
2019-04-16T02:39:07.212Z,0.00
2019-04-16T02:40:06.202Z,0.00
2019-04-16T02:41:06.191Z,0.00
2019-04-16T02:42:06.201Z,0.00
2019-04-16T02:43:07.682Z,0.00
2019-04-16T02:44:06.183Z,0.00
2019-04-16T02:45:06.146Z,0.00
2019-04-16T02:46:06.135Z,0.00
2019-04-16T02:47:07.850Z,0.00
2019-04-16T02:48:06.135Z,0.00
2019-04-16T02:49:06.106Z,0.00
2019-04-16T02:50:06.122Z,0.00
2019-04-16T02:51:08.228Z,0.00
2019-04-16T02:52:06.069Z,0.00
2019-04-16T02:53:06.250Z,0.00
2019-04-16T02:54:06.051Z,0.00
2019-04-16T02:55:09.186Z,0.00
2019-04-16T02:56:06.056Z,0.00
2019-04-16T02:57:06.018Z,0.00
2019-04-16T02:58:06.020Z,0.00
2019-04-16T02:59:11.878Z,0.00
2019-04-16T03:00:06.976Z,0.00
2019-04-16T03:01:05.982Z,0.00
2019-04-16T03:02:05.965Z,0.00
2019-04-16T03:03:05.959Z,0.00
2019-04-16T03:04:05.934Z,0.00
2019-04-16T03:05:05.936Z,0.00
2019-04-16T03:06:05.915Z,0.00
2019-04-16T03:07:05.902Z,0.00
2019-04-16T03:08:06.251Z,0.00
2019-04-16T03:09:08.839Z,0.00
2019-04-16T03:10:05.907Z,0.00
2019-04-16T03:11:05.979Z,0.00
2019-04-16T03:12:05.852Z,0.00
2019-04-16T03:13:05.854Z,0.00
2019-04-16T03:14:05.834Z,0.00
2019-04-16T03:15:05.814Z,0.00
2019-04-16T03:16:07.096Z,0.00
2019-04-16T03:17:06.825Z,0.00
2019-04-16T03:18:05.798Z,0.00
2019-04-16T03:19:05.767Z,0.00
2019-04-16T03:20:05.764Z,0.00
2019-04-16T03:21:05.744Z,0.00
2019-04-16T03:22:05.745Z,0.00
2019-04-16T03:23:06.702Z,0.00
2019-04-16T03:24:09.310Z,0.00
2019-04-16T03:25:05.701Z,0.00
2019-04-16T03:26:05.698Z,0.00
2019-04-16T03:27:05.894Z,0.00
2019-04-16T03:28:05.688Z,0.00
2019-04-16T03:29:05.665Z,0.00
2019-04-16T03:30:06.307Z,0.00
2019-04-16T03:31:08.724Z,0.00
2019-04-16T03:32:05.629Z,0.00
2019-04-16T03:33:12.303Z,0.00
2019-04-16T03:34:06.599Z,0.00
2019-04-16T03:35:05.600Z,0.00
2019-04-16T03:36:05.579Z,0.00
2019-04-16T03:37:05.567Z,0.00
2019-04-16T03:38:06.263Z,0.00
2019-04-16T03:39:05.607Z,0.00
2019-04-16T03:40:16.105Z,0.00
2019-04-16T03:41:06.749Z,0.00
2019-04-16T03:42:05.607Z,0.00
2019-04-16T03:43:05.602Z,0.00
2019-04-16T03:44:05.655Z,0.00
2019-04-16T03:45:08.957Z,0.00
2019-04-16T03:46:05.471Z,0.00
2019-04-16T03:47:05.455Z,0.00
2019-04-16T03:48:05.461Z,0.00
2019-04-16T03:49:05.432Z,0.00
2019-04-16T03:50:05.452Z,0.00
2019-04-16T03:51:05.424Z,0.00
2019-04-16T03:52:08.746Z,0.00
2019-04-16T03:53:05.431Z,0.00
2019-04-16T03:54:05.919Z,0.00
2019-04-16T03:55:05.747Z,0.00
2019-04-16T03:56:05.364Z,0.00
2019-04-16T03:57:05.344Z,0.00
2019-04-16T03:58:06.937Z,0.00
2019-04-16T03:59:10.494Z,0.00
2019-04-16T04:00:11.085Z,0.00
2019-04-16T04:01:06.298Z,0.00
2019-04-16T04:02:05.301Z,0.00
2019-04-16T04:03:05.362Z,0.00
2019-04-16T04:04:05.282Z,0.00
2019-04-16T04:05:06.814Z,0.00
2019-04-16T04:06:06.933Z,0.00
2019-04-16T04:07:05.568Z,4.00
2019-04-16T04:08:05.570Z,4.00
2019-04-16T04:09:05.504Z,0.00
2019-04-16T04:10:05.197Z,4.00
2019-04-16T04:11:09.216Z,4.00
2019-04-16T04:12:06.176Z,4.00
2019-04-16T04:13:05.169Z,4.00
2019-04-16T04:14:05.178Z,4.00
2019-04-16T04:15:05.151Z,8.00
2019-04-16T04:16:05.132Z,8.00
2019-04-16T04:17:06.701Z,8.00
2019-04-16T04:18:07.935Z,12.00
2019-04-16T04:19:06.116Z,16.00
2019-04-16T04:20:05.098Z,16.00
2019-04-16T04:21:05.095Z,20.00
2019-04-16T04:22:05.069Z,24.00
2019-04-16T04:23:05.052Z,28.00
2019-04-16T04:24:05.059Z,28.00
2019-04-16T04:25:05.221Z,36.00
2019-04-16T04:26:05.487Z,40.00
2019-04-16T04:27:05.008Z,44.00
2019-04-16T04:28:04.998Z,48.00
2019-04-16T04:29:06.250Z,52.00
2019-04-16T04:30:04.978Z,64.00
2019-04-16T04:31:04.973Z,64.00
2019-04-16T04:32:04.957Z,72.00
2019-04-16T04:33:08.786Z,80.00
2019-04-16T04:34:04.971Z,88.00
2019-04-16T04:35:04.919Z,96.00
2019-04-16T04:36:04.920Z,104.00
2019-04-16T04:37:04.898Z,112.00
2019-04-16T04:38:05.006Z,120.00
2019-04-16T04:39:09.020Z,128.00
2019-04-16T04:40:05.885Z,136.00
2019-04-16T04:41:04.856Z,144.00
2019-04-16T04:42:04.892Z,156.00
2019-04-16T04:43:04.839Z,164.00
2019-04-16T04:44:05.344Z,172.00
2019-04-16T04:45:08.434Z,180.00
2019-04-16T04:46:04.798Z,192.00
2019-04-16T04:47:04.787Z,200.00
2019-04-16T04:48:04.784Z,208.00
2019-04-16T04:49:04.766Z,216.00
2019-04-16T04:50:04.874Z,228.00
2019-04-16T04:51:08.003Z,236.00
2019-04-16T04:52:04.733Z,248.00
2019-04-16T04:53:04.721Z,256.00
2019-04-16T04:54:04.715Z,264.00
2019-04-16T04:55:04.713Z,272.00
2019-04-16T04:56:04.686Z,284.00
2019-04-16T04:57:04.674Z,288.00
2019-04-16T04:58:04.663Z,296.00
2019-04-16T04:59:05.191Z,304.00
2019-04-16T05:00:05.685Z,316.00
2019-04-16T05:01:04.645Z,320.00
2019-04-16T05:02:04.619Z,328.00
2019-04-16T05:03:04.607Z,332.00
2019-04-16T05:04:04.596Z,340.00
2019-04-16T05:05:04.601Z,348.00
2019-04-16T05:06:04.587Z,356.00
2019-04-16T05:07:04.965Z,360.00
2019-04-16T05:08:04.552Z,368.00
2019-04-16T05:09:04.541Z,376.00
2019-04-16T05:10:07.288Z,384.00
2019-04-16T05:11:04.521Z,388.00
2019-04-16T05:12:07.725Z,392.00
2019-04-16T05:13:04.502Z,400.00
2019-04-16T05:14:04.487Z,404.00
2019-04-16T05:15:04.497Z,412.00
2019-04-16T05:16:06.936Z,416.00
2019-04-16T05:17:06.529Z,424.00
2019-04-16T05:18:05.910Z,428.00
2019-04-16T05:19:04.429Z,436.00
2019-04-16T05:20:04.432Z,436.00
2019-04-16T05:21:04.409Z,444.00
2019-04-16T05:22:04.395Z,448.00
2019-04-16T05:23:04.389Z,452.00
2019-04-16T05:24:04.393Z,456.00
2019-04-16T05:25:04.396Z,460.00
2019-04-16T05:26:04.847Z,468.00
2019-04-16T05:27:05.432Z,472.00
2019-04-16T05:28:04.338Z,480.00
2019-04-16T05:29:04.327Z,480.00
2019-04-16T05:30:04.341Z,484.00
2019-04-16T05:31:04.295Z,492.00
2019-04-16T05:32:04.285Z,496.00
2019-04-16T05:33:05.639Z,500.00
2019-04-16T05:34:06.009Z,504.00
2019-04-16T05:35:09.158Z,508.00
2019-04-16T05:36:05.249Z,512.00
2019-04-16T05:37:04.229Z,520.00
2019-04-16T05:38:04.226Z,520.00
2019-04-16T05:39:04.207Z,524.00
2019-04-16T05:40:04.196Z,528.00
2019-04-16T05:41:13.296Z,532.00
2019-04-16T05:42:05.185Z,536.00
2019-04-16T05:43:04.167Z,536.00
2019-04-16T05:44:04.150Z,540.00
2019-04-16T05:45:05.490Z,544.00
2019-04-16T05:46:05.472Z,548.00
2019-04-16T05:47:04.134Z,548.00
2019-04-16T05:48:04.114Z,552.00
2019-04-16T05:49:04.094Z,556.00
2019-04-16T05:50:04.083Z,560.00
2019-04-16T05:51:04.090Z,564.00
2019-04-16T05:52:04.231Z,564.00
2019-04-16T05:53:05.364Z,568.00
2019-04-16T05:54:04.048Z,568.00
2019-04-16T05:55:04.034Z,568.00
2019-04-16T05:56:04.040Z,572.00
2019-04-16T05:57:04.005Z,572.00
2019-04-16T05:58:03.996Z,572.00
2019-04-16T05:59:03.984Z,576.00
2019-04-16T06:00:09.399Z,576.00
2019-04-16T06:01:04.980Z,580.00
2019-04-16T06:02:03.953Z,580.00
2019-04-16T06:03:03.942Z,580.00
2019-04-16T06:04:03.934Z,584.00
2019-04-16T06:05:03.916Z,584.00
2019-04-16T06:06:03.944Z,584.00
2019-04-16T06:07:07.531Z,592.00
2019-04-16T06:08:06.306Z,592.00
2019-04-16T06:09:04.870Z,592.00
2019-04-16T06:10:06.800Z,592.00
2019-04-16T06:11:03.865Z,592.00
2019-04-16T06:12:05.899Z,596.00
2019-04-16T06:13:03.828Z,600.00
2019-04-16T06:14:03.816Z,600.00
2019-04-16T06:15:03.810Z,600.00
2019-04-16T06:16:03.815Z,604.00
2019-04-16T06:17:03.782Z,604.00
2019-04-16T06:18:05.410Z,608.00
2019-04-16T06:19:03.760Z,608.00
2019-04-16T06:20:03.749Z,612.00
2019-04-16T06:21:03.754Z,612.00
2019-04-16T06:22:03.726Z,616.00
2019-04-16T06:23:03.720Z,616.00
2019-04-16T06:24:04.254Z,616.00
2019-04-16T06:25:08.687Z,620.00
2019-04-16T06:26:04.698Z,620.00
2019-04-16T06:27:03.685Z,620.00
2019-04-16T06:28:03.661Z,624.00
2019-04-16T06:29:03.649Z,624.00
2019-04-16T06:30:03.647Z,628.00
2019-04-16T06:31:05.697Z,628.00
2019-04-16T06:32:03.615Z,628.00
2019-04-16T06:33:03.603Z,628.00
2019-04-16T06:34:03.592Z,636.00
2019-04-16T06:35:03.581Z,632.00
2019-04-16T06:36:03.601Z,636.00
2019-04-16T06:37:03.559Z,636.00
2019-04-16T06:38:03.565Z,640.00
2019-04-16T06:39:03.541Z,640.00
2019-04-16T06:40:03.526Z,644.00
2019-04-16T06:41:04.262Z,644.00
2019-04-16T06:42:03.508Z,648.00
2019-04-16T06:43:03.495Z,648.00
2019-04-16T06:44:04.153Z,648.00
2019-04-16T06:45:04.807Z,648.00
2019-04-16T06:46:05.415Z,652.00
2019-04-16T06:47:03.464Z,652.00
2019-04-16T06:48:03.446Z,652.00
2019-04-16T06:49:03.435Z,656.00
2019-04-16T06:50:03.422Z,656.00
2019-04-16T06:51:03.405Z,660.00
2019-04-16T06:52:03.501Z,660.00
2019-04-16T06:53:03.381Z,660.00
2019-04-16T06:54:03.384Z,660.00
2019-04-16T06:55:04.296Z,660.00
2019-04-16T06:56:05.597Z,664.00
2019-04-16T06:57:04.351Z,664.00
2019-04-16T06:58:03.335Z,664.00
2019-04-16T06:59:03.314Z,664.00
2019-04-16T07:00:07.004Z,664.00
2019-04-16T07:01:06.126Z,664.00
2019-04-16T07:02:03.299Z,664.00
2019-04-16T07:03:03.272Z,664.00
2019-04-16T07:04:06.491Z,668.00
2019-04-16T07:05:03.248Z,668.00
2019-04-16T07:06:03.955Z,672.00
2019-04-16T07:07:08.013Z,672.00
2019-04-16T07:08:04.213Z,672.00
2019-04-16T07:09:03.202Z,672.00
2019-04-16T07:10:03.192Z,676.00
2019-04-16T07:11:03.184Z,672.00
2019-04-16T07:12:03.196Z,672.00
2019-04-16T07:13:03.158Z,672.00
2019-04-16T07:14:03.148Z,676.00
2019-04-16T07:15:03.136Z,672.00
2019-04-16T07:16:03.124Z,680.00
2019-04-16T07:17:03.143Z,676.00
2019-04-16T07:18:05.516Z,680.00
2019-04-16T07:19:03.093Z,676.00
2019-04-16T07:20:04.767Z,680.00
2019-04-16T07:21:03.069Z,680.00
2019-04-16T07:22:03.072Z,680.00
2019-04-16T07:23:03.051Z,680.00
2019-04-16T07:24:03.055Z,684.00
2019-04-16T07:25:04.486Z,684.00
2019-04-16T07:26:04.155Z,684.00
2019-04-16T07:27:03.156Z,684.00
2019-04-16T07:28:03.114Z,688.00
2019-04-16T07:29:03.033Z,688.00
2019-04-16T07:30:07.074Z,688.00
2019-04-16T07:31:04.039Z,688.00
2019-04-16T07:32:03.248Z,692.00
2019-04-16T07:33:02.951Z,692.00
2019-04-16T07:34:02.939Z,696.00
2019-04-16T07:35:02.929Z,696.00
2019-04-16T07:36:03.133Z,696.00
2019-04-16T07:37:02.891Z,696.00
2019-04-16T07:38:05.792Z,700.00
2019-04-16T07:39:05.049Z,700.00
2019-04-16T07:40:08.678Z,700.00
2019-04-16T07:41:03.871Z,700.00
2019-04-16T07:42:10.283Z,700.00
2019-04-16T07:43:03.841Z,708.00
2019-04-16T07:44:07.867Z,704.00
2019-04-16T07:45:03.830Z,708.00
2019-04-16T07:46:02.795Z,708.00
2019-04-16T07:47:02.798Z,712.00
2019-04-16T07:48:05.656Z,708.00
2019-04-16T07:49:02.761Z,712.00
2019-04-16T07:50:02.746Z,716.00
2019-04-16T07:51:04.817Z,716.00
2019-04-16T07:52:07.031Z,720.00
2019-04-16T07:53:03.760Z,724.00
2019-04-16T07:54:03.281Z,724.00
2019-04-16T07:55:02.690Z,724.00
2019-04-16T07:56:02.680Z,728.00
2019-04-16T07:57:02.677Z,728.00
2019-04-16T07:58:02.779Z,732.00
2019-04-16T07:59:02.702Z,736.00
2019-04-16T08:00:02.634Z,736.00
2019-04-16T08:01:02.627Z,744.00
2019-04-16T08:02:02.629Z,748.00
2019-04-16T08:03:02.704Z,748.00
2019-04-16T08:04:03.271Z,756.00
2019-04-16T08:05:07.723Z,760.00
2019-04-16T08:06:03.566Z,764.00
2019-04-16T08:07:02.557Z,764.00
2019-04-16T08:08:02.551Z,760.00
2019-04-16T08:09:02.552Z,756.00
2019-04-16T08:10:03.328Z,760.00
2019-04-16T08:11:02.524Z,748.00
2019-04-16T08:12:02.692Z,764.00
2019-04-16T08:13:02.490Z,772.00
2019-04-16T08:14:02.757Z,772.00
2019-04-16T08:15:13.812Z,780.00
2019-04-16T08:16:03.458Z,784.00
2019-04-16T08:17:02.619Z,788.00
2019-04-16T08:18:02.444Z,792.00
2019-04-16T08:19:02.439Z,796.00
2019-04-16T08:20:02.642Z,792.00
2019-04-16T08:21:09.810Z,792.00
2019-04-16T08:22:03.410Z,800.00
2019-04-16T08:23:02.395Z,800.00
2019-04-16T08:24:02.591Z,804.00
2019-04-16T08:25:03.994Z,804.00
2019-04-16T08:26:04.630Z,804.00
2019-04-16T08:27:03.338Z,808.00
2019-04-16T08:28:02.328Z,808.00
2019-04-16T08:29:02.502Z,808.00
2019-04-16T08:30:04.050Z,812.00
2019-04-16T08:31:02.291Z,816.00
2019-04-16T08:32:02.279Z,820.00
2019-04-16T08:33:02.275Z,820.00
2019-04-16T08:34:02.289Z,824.00
2019-04-16T08:35:02.259Z,828.00
2019-04-16T08:36:02.245Z,836.00
2019-04-16T08:37:02.422Z,840.00
2019-04-16T08:38:02.220Z,844.00
2019-04-16T08:39:05.821Z,848.00
2019-04-16T08:40:02.199Z,856.00
2019-04-16T08:41:02.185Z,860.00
2019-04-16T08:42:02.169Z,860.00
2019-04-16T08:43:02.156Z,864.00
2019-04-16T08:44:03.486Z,864.00
2019-04-16T08:45:07.600Z,868.00
2019-04-16T08:46:03.122Z,868.00
2019-04-16T08:47:02.112Z,864.00
2019-04-16T08:48:02.201Z,860.00
2019-04-16T08:49:02.157Z,848.00
2019-04-16T08:50:02.096Z,840.00
2019-04-16T08:51:04.742Z,836.00
2019-04-16T08:52:02.059Z,832.00
2019-04-16T08:53:02.049Z,836.00
2019-04-16T08:54:02.055Z,840.00
2019-04-16T08:55:02.037Z,840.00
2019-04-16T08:56:02.020Z,852.00
2019-04-16T08:57:02.003Z,868.00
2019-04-16T08:58:05.889Z,876.00
2019-04-16T08:59:02.976Z,880.00
2019-04-16T09:00:01.990Z,884.00
2019-04-16T09:01:01.962Z,888.00
2019-04-16T09:02:01.951Z,888.00
2019-04-16T09:03:01.933Z,892.00
2019-04-16T09:04:03.071Z,892.00
2019-04-16T09:05:05.857Z,892.00
2019-04-16T09:06:04.419Z,896.00
2019-04-16T09:07:11.132Z,896.00
2019-04-16T09:08:12.252Z,900.00
2019-04-16T09:09:12.952Z,908.00
2019-04-16T09:10:16.165Z,916.00
2019-04-16T09:11:04.291Z,916.00
2019-04-16T09:12:01.958Z,924.00
2019-04-16T09:13:03.751Z,928.00
2019-04-16T09:14:01.821Z,932.00
2019-04-16T09:15:01.826Z,940.00
2019-04-16T09:16:01.790Z,940.00
2019-04-16T09:17:01.791Z,936.00
2019-04-16T09:18:01.774Z,920.00
2019-04-16T09:19:01.768Z,936.00
2019-04-16T09:20:04.989Z,944.00
2019-04-16T09:21:01.764Z,956.00
2019-04-16T09:22:01.722Z,956.00
2019-04-16T09:23:01.722Z,964.00
2019-04-16T09:24:08.045Z,972.00
2019-04-16T09:25:02.714Z,976.00
2019-04-16T09:26:13.262Z,980.00
2019-04-16T09:27:02.666Z,984.00
2019-04-16T09:28:01.908Z,992.00
2019-04-16T09:29:08.163Z,996.00
2019-04-16T09:30:02.669Z,1004.00
2019-04-16T09:31:01.639Z,1008.00
2019-04-16T09:32:01.613Z,1016.00
2019-04-16T09:33:02.397Z,1024.00
2019-04-16T09:34:05.311Z,1032.00
2019-04-16T09:35:08.857Z,1036.00
2019-04-16T09:36:02.581Z,1044.00
2019-04-16T09:37:01.573Z,1052.00
2019-04-16T09:38:01.569Z,1056.00
2019-04-16T09:39:01.535Z,1068.00
2019-04-16T09:40:15.466Z,1068.00
2019-04-16T09:41:02.529Z,1080.00
2019-04-16T09:42:01.510Z,1084.00
2019-04-16T09:43:01.510Z,1088.00
2019-04-16T09:44:01.490Z,1092.00
2019-04-16T09:45:01.737Z,1100.00
2019-04-16T09:46:10.176Z,1108.00
2019-04-16T09:47:04.992Z,1112.00
2019-04-16T09:48:02.347Z,1120.00
2019-04-16T09:49:04.784Z,1124.00
2019-04-16T09:50:01.412Z,1128.00
2019-04-16T09:51:01.420Z,1132.00
2019-04-16T09:52:03.821Z,1136.00
2019-04-16T09:53:02.012Z,1136.00
2019-04-16T09:54:01.370Z,1144.00
2019-04-16T09:55:01.372Z,1148.00
2019-04-16T09:56:01.363Z,1156.00
2019-04-16T09:57:01.336Z,1160.00
2019-04-16T09:58:06.037Z,1168.00
2019-04-16T09:59:02.312Z,1168.00
2019-04-16T10:00:01.314Z,1176.00
2019-04-16T10:01:01.381Z,1184.00
2019-04-16T10:02:01.282Z,1196.00
2019-04-16T10:03:01.269Z,1200.00
2019-04-16T10:04:01.259Z,1212.00
2019-04-16T10:05:01.259Z,1216.00
2019-04-16T10:06:01.252Z,1216.00
2019-04-16T10:07:01.246Z,1224.00
2019-04-16T10:08:01.215Z,1232.00
2019-04-16T10:09:01.202Z,1244.00
2019-04-16T10:10:01.211Z,1260.00
2019-04-16T10:11:05.630Z,1276.00
2019-04-16T10:12:01.185Z,1292.00
2019-04-16T10:13:01.169Z,1296.00
2019-04-16T10:14:01.168Z,1308.00
2019-04-16T10:15:01.147Z,1324.00
2019-04-16T10:16:01.139Z,1340.00
2019-04-16T10:17:01.114Z,1360.00
2019-04-16T10:18:02.310Z,1388.00
2019-04-16T10:19:01.103Z,1404.00
2019-04-16T10:20:01.089Z,1408.00
2019-04-16T10:21:01.087Z,1408.00
2019-04-16T10:22:01.093Z,1400.00
2019-04-16T10:23:01.050Z,1396.00
2019-04-16T10:24:01.037Z,1404.00
2019-04-16T10:25:01.041Z,1412.00
2019-04-16T10:26:01.032Z,1420.00
2019-04-16T10:27:04.156Z,1440.00
2019-04-16T10:28:02.023Z,1460.00
2019-04-16T10:29:00.981Z,1484.00
2019-04-16T10:30:00.973Z,1504.00
2019-04-16T10:31:00.967Z,1524.00
2019-04-16T10:32:00.965Z,1540.00
2019-04-16T10:33:00.940Z,1552.00
2019-04-16T10:34:00.946Z,1460.00
2019-04-16T10:35:00.989Z,1532.00
2019-04-16T10:36:04.164Z,1680.00
2019-04-16T10:37:00.909Z,1812.00
2019-04-16T10:38:00.886Z,1968.00
2019-04-16T10:39:00.884Z,2096.00
2019-04-16T10:40:00.883Z,1976.00
2019-04-16T10:41:00.869Z,1840.00
2019-04-16T10:42:00.872Z,1776.00
2019-04-16T10:43:00.833Z,1796.00
2019-04-16T10:44:00.833Z,1980.00
2019-04-16T10:45:00.828Z,2132.00
2019-04-16T10:46:00.810Z,2220.00
2019-04-16T10:47:00.802Z,2288.00
2019-04-16T10:48:00.785Z,2332.00
2019-04-16T10:49:00.876Z,2352.00
2019-04-16T10:50:00.765Z,2376.00
2019-04-16T10:51:00.746Z,2400.00
2019-04-16T10:52:00.769Z,2360.00
2019-04-16T10:53:00.717Z,2264.00
2019-04-16T10:54:00.710Z,2260.00
2019-04-16T10:55:00.717Z,2328.00
2019-04-16T10:56:00.688Z,2412.00
2019-04-16T10:57:00.720Z,2432.00
2019-04-16T10:58:00.664Z,2332.00
2019-04-16T10:59:00.679Z,2296.00
2019-04-16T11:00:00.848Z,2360.00
2019-04-16T11:01:00.645Z,2304.00
2019-04-16T11:02:00.684Z,2284.00
2019-04-16T11:03:00.608Z,2228.00
2019-04-16T11:04:00.641Z,2212.00
2019-04-16T11:05:02.999Z,2240.00
2019-04-16T11:06:00.597Z,2260.00
2019-04-16T11:07:00.616Z,2284.00
2019-04-16T11:08:00.579Z,2296.00
2019-04-16T11:09:00.556Z,2292.00
2019-04-16T11:10:00.560Z,2368.00
2019-04-16T11:11:00.524Z,2476.00
2019-04-16T11:12:04.827Z,2624.00
2019-04-16T11:13:00.546Z,2792.00
2019-04-16T11:14:00.741Z,3012.00
2019-04-16T11:15:00.478Z,3004.00
2019-04-16T11:16:00.500Z,3020.00
2019-04-16T11:17:00.517Z,3060.00
2019-04-16T11:18:00.472Z,3116.00
2019-04-16T11:19:00.443Z,3236.00
2019-04-16T11:20:00.472Z,2932.00
2019-04-16T11:21:00.468Z,2648.00
2019-04-16T11:22:04.156Z,2600.00
2019-04-16T11:23:00.436Z,2668.00
2019-04-16T11:24:00.491Z,2756.00
2019-04-16T11:25:00.379Z,2716.00
2019-04-16T11:26:00.360Z,2572.00
2019-04-16T11:27:00.380Z,2656.00
2019-04-16T11:28:00.335Z,2876.00
2019-04-16T11:29:00.340Z,3012.00
2019-04-16T11:30:00.343Z,3088.00
2019-04-16T11:31:00.354Z,3184.00
2019-04-16T11:32:00.326Z,3156.00
2019-04-16T11:33:00.310Z,2980.00
2019-04-16T11:34:00.272Z,3020.00
2019-04-16T11:35:00.296Z,3192.00
2019-04-16T11:36:00.279Z,3248.00
2019-04-16T11:37:00.252Z,3152.00
2019-04-16T11:38:00.249Z,2912.00
2019-04-16T11:39:00.219Z,2764.00
2019-04-16T11:40:00.207Z,2968.00
2019-04-16T11:41:00.196Z,3044.00
2019-04-16T11:42:00.214Z,3176.00
2019-04-16T11:43:00.239Z,3308.00
2019-04-16T11:44:14.059Z,3384.00
2019-04-16T11:45:01.178Z,3560.00
2019-04-16T11:46:00.144Z,3820.00
2019-04-16T11:47:00.147Z,4376.00
2019-04-16T11:48:00.138Z,4652.00
2019-04-16T11:49:00.135Z,4352.00
2019-04-16T11:50:00.148Z,4972.00
2019-04-16T11:51:00.127Z,5096.00
2019-04-16T11:52:00.078Z,5040.00
2019-04-16T11:53:00.098Z,5076.00
2019-04-16T11:54:00.064Z,4208.00
2019-04-16T11:55:00.847Z,3656.00
2019-04-16T11:56:00.051Z,4040.00
2019-04-16T11:57:00.225Z,4924.00
2019-04-16T11:58:00.073Z,5288.00
2019-04-16T11:59:00.006Z,6080.00
2019-04-16T12:00:07.856Z,6064.00
2019-04-16T12:01:01.031Z,6208.00
2019-04-16T12:01:59.971Z,6280.00
2019-04-16T12:02:59.977Z,6932.00
2019-04-16T12:03:59.974Z,4984.00
2019-04-16T12:04:59.944Z,4940.00
2019-04-16T12:05:59.966Z,4468.00
2019-04-16T12:06:59.934Z,4244.00
2019-04-16T12:07:59.990Z,3964.00
2019-04-16T12:08:59.906Z,3740.00
2019-04-16T12:09:59.912Z,4168.00
2019-04-16T12:10:59.903Z,14160.00
2019-04-16T12:11:59.889Z,2796.00
2019-04-16T12:13:03.337Z,2720.00
2019-04-16T12:13:59.878Z,3000.00
2019-04-16T12:14:59.837Z,3372.00
2019-04-16T12:15:59.830Z,3620.00
2019-04-16T12:16:59.805Z,4016.00
2019-04-16T12:17:59.837Z,6092.00
2019-04-16T12:18:59.791Z,40224.00
2019-04-16T12:19:59.791Z,43104.00
2019-04-16T12:20:59.758Z,4888.00
2019-04-16T12:21:59.752Z,13548.00
2019-04-16T12:22:59.790Z,9784.00
2019-04-16T12:23:59.782Z,25280.00
2019-04-16T12:24:59.734Z,46176.00
2019-04-16T12:25:59.730Z,47616.00
2019-04-16T12:26:59.700Z,47360.00
2019-04-16T12:28:01.941Z,34240.00
2019-04-16T12:29:00.715Z,46048.00
2019-04-16T12:29:59.662Z,6900.00
2019-04-16T12:30:59.698Z,45600.00
2019-04-16T12:32:03.600Z,5012.00
2019-04-16T12:33:00.700Z,3404.00
2019-04-16T12:33:59.614Z,3620.00
2019-04-16T12:34:59.606Z,4112.00
2019-04-16T12:35:59.612Z,6504.00
2019-04-16T12:36:59.596Z,5600.00
2019-04-16T12:37:59.584Z,6248.00